createdAt,value
2019-04-05T00:00:55.970Z,12.23
2019-04-05T00:03:21.381Z,12.57
2019-04-05T00:05:46.742Z,12.30
2019-04-05T00:08:12.194Z,12.70
2019-04-05T00:10:37.582Z,12.93
2019-04-05T00:13:03.033Z,12.90
2019-04-05T00:15:28.413Z,12.30
2019-04-05T00:17:53.770Z,12.77
2019-04-05T00:20:19.118Z,13.80
2019-04-05T00:22:44.531Z,12.47
2019-04-05T00:25:10.065Z,12.77
2019-04-05T00:27:35.518Z,12.50
2019-04-05T00:30:00.884Z,13.40
2019-04-05T00:32:26.247Z,13.60
2019-04-05T00:34:51.681Z,13.00
2019-04-05T00:37:17.032Z,13.63
2019-04-05T00:39:42.390Z,13.33
2019-04-05T00:42:07.761Z,13.60
2019-04-05T00:44:33.125Z,13.40
2019-04-05T00:46:58.588Z,14.07
2019-04-05T00:49:23.950Z,13.33
2019-04-05T00:51:49.312Z,13.77
2019-04-05T00:54:14.685Z,13.93
2019-04-05T00:56:40.038Z,14.60
2019-04-05T00:59:05.534Z,14.63
2019-04-05T01:01:31.898Z,14.17
2019-04-05T01:03:57.319Z,14.47
2019-04-05T01:06:22.738Z,14.17
2019-04-05T01:08:48.299Z,14.30
2019-04-05T01:11:13.705Z,14.37
2019-04-05T01:13:39.249Z,13.83
2019-04-05T01:16:04.607Z,14.23
2019-04-05T01:18:30.052Z,15.17
2019-04-05T01:20:56.900Z,15.00
2019-04-05T01:23:22.366Z,15.53
2019-04-05T01:25:47.721Z,15.53
2019-04-05T01:28:13.160Z,16.40
2019-04-05T01:30:38.613Z,15.50
2019-04-05T01:33:04.000Z,15.70
2019-04-05T01:35:29.374Z,15.27
2019-04-05T01:37:55.425Z,15.50
2019-04-05T01:40:20.807Z,15.73
2019-04-05T01:42:47.164Z,15.07
2019-04-05T01:45:13.723Z,16.43
2019-04-05T01:47:39.178Z,14.80
2019-04-05T01:50:05.537Z,15.97
2019-04-05T01:52:31.310Z,14.37
2019-04-05T01:54:56.667Z,14.67
2019-04-05T01:57:22.426Z,15.07
2019-04-05T01:59:47.766Z,14.77
2019-04-05T02:02:13.123Z,14.70
2019-04-05T02:04:38.521Z,14.93
2019-04-05T02:07:03.887Z,15.80
2019-04-05T02:09:29.273Z,14.97
2019-04-05T02:11:54.618Z,15.07
2019-04-05T02:14:20.085Z,14.70
2019-04-05T02:16:45.437Z,16.27
2019-04-05T02:19:10.775Z,15.17
2019-04-05T02:21:36.194Z,15.93
2019-04-05T02:24:01.658Z,15.60
2019-04-05T02:26:27.135Z,15.83
2019-04-05T02:28:52.574Z,16.17
2019-04-05T02:31:18.039Z,15.93
2019-04-05T02:33:43.462Z,15.40
2019-04-05T02:36:08.875Z,15.40
2019-04-05T02:38:34.249Z,16.07
2019-04-05T02:41:01.205Z,15.40
2019-04-05T02:43:29.538Z,15.33
2019-04-05T02:45:57.447Z,14.90
2019-04-05T02:48:24.357Z,15.33
2019-04-05T02:50:52.885Z,15.43
2019-04-05T02:53:20.021Z,14.63
2019-04-05T02:55:45.575Z,15.57
2019-04-05T02:58:13.147Z,15.53
2019-04-05T03:00:38.625Z,15.27
2019-04-05T03:03:06.035Z,15.63
2019-04-05T03:05:32.007Z,16.40
2019-04-05T03:07:58.082Z,15.73
2019-04-05T03:11:00.182Z,15.13
2019-04-05T03:13:26.888Z,15.97
2019-04-05T03:15:54.199Z,16.30
2019-04-05T03:18:20.201Z,16.80
2019-04-05T03:20:45.551Z,16.33
2019-04-05T03:23:11.507Z,16.97
2019-04-05T03:25:37.365Z,17.03
2019-04-05T03:28:03.414Z,17.10
2019-04-05T03:30:28.985Z,17.37
2019-04-05T03:32:54.437Z,17.70
2019-04-05T03:35:19.890Z,17.93
2019-04-05T03:37:46.461Z,18.07
2019-04-05T03:40:11.913Z,16.87
2019-04-05T03:42:37.290Z,17.20
2019-04-05T03:45:02.650Z,17.43
2019-04-05T03:47:28.011Z,17.33
2019-04-05T03:49:53.383Z,18.10
2019-04-05T03:52:18.730Z,18.70
2019-04-05T03:54:44.109Z,17.83
2019-04-05T03:57:11.037Z,17.90
2019-04-05T03:59:36.623Z,17.87
2019-04-05T04:02:02.073Z,18.23
2019-04-05T04:04:27.522Z,18.57
2019-04-05T04:06:53.026Z,17.50
2019-04-05T04:09:18.830Z,18.10
2019-04-05T04:11:44.446Z,17.77
2019-04-05T04:14:11.521Z,18.60
2019-04-05T04:16:37.369Z,18.20
2019-04-05T04:19:02.740Z,18.20
2019-04-05T04:21:38.554Z,17.50
2019-04-05T04:24:05.051Z,18.73
2019-04-05T04:26:31.303Z,18.80
2019-04-05T04:28:57.650Z,18.57
2019-04-05T04:31:23.414Z,18.73
2019-04-05T04:33:48.890Z,19.17
2019-04-05T04:36:14.286Z,18.70
2019-04-05T04:38:39.618Z,18.97
2019-04-05T04:41:05.571Z,20.13
2019-04-05T04:43:31.249Z,19.97
2019-04-05T04:45:56.700Z,20.20
2019-04-05T04:48:22.093Z,19.90
2019-04-05T04:50:48.150Z,19.73
2019-04-05T04:53:13.794Z,19.53
2019-04-05T04:55:39.183Z,19.53
2019-04-05T04:58:05.021Z,19.57
2019-04-05T05:00:30.493Z,19.30
2019-04-05T05:02:55.942Z,19.63
2019-04-05T05:05:21.806Z,18.43
2019-04-05T05:07:48.100Z,18.97
2019-04-05T05:10:14.070Z,20.20
2019-04-05T05:12:39.855Z,20.47
2019-04-05T05:15:05.621Z,20.23
2019-04-05T05:17:38.343Z,19.30
2019-04-05T05:19:58.473Z,20.57
2019-04-05T05:22:24.326Z,20.33
2019-04-05T05:24:49.815Z,19.63
2019-04-05T05:27:15.270Z,19.53
2019-04-05T05:29:40.897Z,19.50
2019-04-05T05:32:09.664Z,19.63
2019-04-05T05:34:34.870Z,19.53
2019-04-05T05:37:00.314Z,18.43
2019-04-05T05:39:25.797Z,18.70
2019-04-05T05:41:51.278Z,19.50
2019-04-05T05:44:16.623Z,18.57
2019-04-05T05:46:41.991Z,17.93
2019-04-05T05:49:07.335Z,17.97
2019-04-05T05:51:33.098Z,18.03
2019-04-05T05:53:58.466Z,18.47
2019-04-05T05:56:23.818Z,18.97
2019-04-05T05:58:49.205Z,18.20
2019-04-05T06:01:14.594Z,18.37
2019-04-05T06:03:39.991Z,18.43
2019-04-05T06:06:05.385Z,18.43
2019-04-05T06:08:30.730Z,17.27
2019-04-05T06:10:56.102Z,17.20
2019-04-05T06:13:21.445Z,17.23
2019-04-05T06:15:46.846Z,17.70
2019-04-05T06:18:12.801Z,17.23
2019-04-05T06:20:38.261Z,18.07
2019-04-05T06:23:03.635Z,18.33
2019-04-05T06:25:29.006Z,17.63
2019-04-05T06:27:54.354Z,18.13
2019-04-05T06:30:19.725Z,18.47
2019-04-05T06:32:45.153Z,17.80
2019-04-05T06:35:10.618Z,18.30
2019-04-05T06:37:38.132Z,16.63
2019-04-05T06:40:03.544Z,15.53
2019-04-05T06:42:28.897Z,15.47
2019-04-05T06:44:54.282Z,15.33
2019-04-05T06:47:19.625Z,16.30
2019-04-05T06:49:44.977Z,15.77
2019-04-05T06:52:10.362Z,15.23
2019-04-05T06:54:35.714Z,17.10
2019-04-05T06:57:01.473Z,16.63
2019-04-05T06:59:27.187Z,16.27
2019-04-05T07:01:52.578Z,16.30
2019-04-05T07:04:17.928Z,15.90
2019-04-05T07:06:43.266Z,16.57
2019-04-05T07:09:08.745Z,16.87
2019-04-05T07:11:34.105Z,17.43
2019-04-05T07:13:59.486Z,17.73
2019-04-05T07:16:26.306Z,18.07
2019-04-05T07:18:51.656Z,18.57
2019-04-05T07:21:17.424Z,21.17
2019-04-05T07:23:42.968Z,20.90
2019-04-05T07:26:08.435Z,23.93
2019-04-05T07:28:34.175Z,23.37
2019-04-05T07:30:59.538Z,25.80
2019-04-05T07:33:24.936Z,25.13
2019-04-05T07:35:50.258Z,26.27
2019-04-05T07:38:15.648Z,27.80
2019-04-05T07:40:40.992Z,26.33
2019-04-05T07:43:06.342Z,26.43
2019-04-05T07:45:31.787Z,27.83
2019-04-05T07:47:57.130Z,27.57
2019-04-05T07:50:22.589Z,28.07
2019-04-05T07:52:48.020Z,30.00
2019-04-05T07:55:14.573Z,28.50
2019-04-05T07:57:39.950Z,30.40
2019-04-05T08:00:08.034Z,32.17
2019-04-05T08:02:33.434Z,33.20
2019-04-05T08:04:58.782Z,33.53
2019-04-05T08:07:26.345Z,35.03
2019-04-05T08:09:52.175Z,35.60
2019-04-05T08:12:17.838Z,35.13
2019-04-05T08:14:43.369Z,36.20
2019-04-05T08:17:08.683Z,36.43
2019-04-05T08:19:34.046Z,38.33
2019-04-05T08:21:59.413Z,38.30
2019-04-05T08:24:24.761Z,37.13
2019-04-05T08:26:50.137Z,36.47
2019-04-05T08:29:15.485Z,35.83
2019-04-05T08:31:40.853Z,38.57
2019-04-05T08:34:06.276Z,39.57
2019-04-05T08:36:32.804Z,41.40
2019-04-05T08:38:58.182Z,41.17
2019-04-05T08:41:23.526Z,43.03
2019-04-05T08:43:48.902Z,42.37
2019-04-05T08:46:14.253Z,41.60
2019-04-05T08:48:39.638Z,39.73
2019-04-05T08:51:05.295Z,41.70
2019-04-05T08:53:30.707Z,40.67
2019-04-05T08:55:56.069Z,40.90
2019-04-05T08:58:32.903Z,42.37
2019-04-05T09:00:48.422Z,42.00
2019-04-05T09:03:13.804Z,41.43
2019-04-05T09:05:39.951Z,39.17
2019-04-05T09:08:05.401Z,42.90
2019-04-05T09:10:30.754Z,43.83
2019-04-05T09:12:56.202Z,43.57
2019-04-05T09:15:21.554Z,43.43
2019-04-05T09:17:46.942Z,42.97
2019-04-05T09:20:12.391Z,46.53
2019-04-05T09:22:37.731Z,47.10
2019-04-05T09:25:03.410Z,45.17
2019-04-05T09:27:28.763Z,44.77
2019-04-05T09:29:54.154Z,46.87
2019-04-05T09:32:19.538Z,50.47
2019-04-05T09:34:44.865Z,52.07
2019-04-05T09:37:11.130Z,50.13
2019-04-05T09:39:36.483Z,50.03
2019-04-05T09:42:01.840Z,45.83
2019-04-05T09:44:27.207Z,46.60
2019-04-05T09:46:52.553Z,43.50
2019-04-05T09:49:17.921Z,42.70
2019-04-05T09:51:43.270Z,44.23
2019-04-05T09:54:08.634Z,45.83
2019-04-05T09:56:34.114Z,45.63
2019-04-05T09:58:59.465Z,45.77
2019-04-05T10:01:24.845Z,43.77
2019-04-05T10:03:50.255Z,43.23
2019-04-05T10:06:17.097Z,43.60
2019-04-05T10:08:42.518Z,42.17
2019-04-05T10:11:07.870Z,43.17
2019-04-05T10:13:33.238Z,46.37
2019-04-05T10:15:58.593Z,42.53
2019-04-05T10:18:23.964Z,47.07
2019-04-05T10:20:49.318Z,44.97
2019-04-05T10:23:14.709Z,41.90
2019-04-05T10:25:43.743Z,46.00
2019-04-05T10:28:08.105Z,46.73
2019-04-05T10:30:33.469Z,41.87
2019-04-05T10:32:58.821Z,50.17
2019-04-05T10:35:24.193Z,49.57
2019-04-05T10:37:49.906Z,51.70
2019-04-05T10:40:16.295Z,53.90
2019-04-05T10:42:41.638Z,50.80
2019-04-05T10:45:09.898Z,49.73
2019-04-05T10:47:35.348Z,49.00
2019-04-05T10:50:03.439Z,49.30
2019-04-05T10:52:27.697Z,50.10
2019-04-05T10:54:53.052Z,50.63
2019-04-05T10:57:18.407Z,49.80
2019-04-05T10:59:43.846Z,50.63
2019-04-05T11:02:09.193Z,49.67
2019-04-05T11:04:34.594Z,50.87
2019-04-05T11:06:59.969Z,53.57
2019-04-05T11:09:25.334Z,52.83
2019-04-05T11:11:50.709Z,52.53
2019-04-05T11:14:16.059Z,52.90
2019-04-05T11:16:41.450Z,53.60
2019-04-05T11:19:06.810Z,53.87
2019-04-05T11:21:32.182Z,54.27
2019-04-05T11:23:57.562Z,53.43
2019-04-05T11:26:22.906Z,56.77
2019-04-05T11:28:48.651Z,49.87
2019-04-05T11:31:14.010Z,49.90
2019-04-05T11:33:39.366Z,52.47
2019-04-05T11:36:04.846Z,51.67
2019-04-05T11:38:30.693Z,52.70
2019-04-05T11:40:56.773Z,46.03
2019-04-05T11:43:26.238Z,51.07
2019-04-05T11:45:51.618Z,48.33
2019-04-05T11:48:17.077Z,45.80
2019-04-05T11:50:42.620Z,45.93
2019-04-05T11:53:08.380Z,44.93
2019-04-05T11:55:33.722Z,40.10
2019-04-05T11:57:59.105Z,45.87
2019-04-05T12:00:30.873Z,44.37
2019-04-05T12:03:02.138Z,45.77
2019-04-05T12:05:27.949Z,43.37
2019-04-05T12:07:56.304Z,40.10
2019-04-05T12:10:20.289Z,40.53
2019-04-05T12:12:45.715Z,38.67
2019-04-05T12:15:11.430Z,38.00
2019-04-05T12:17:36.810Z,39.80
2019-04-05T12:20:02.721Z,39.23
2019-04-05T12:22:29.038Z,41.00
2019-04-05T12:25:13.500Z,38.60
2019-04-05T12:27:38.873Z,38.00
2019-04-05T12:30:06.417Z,37.83
2019-04-05T12:32:34.446Z,36.47
2019-04-05T12:34:58.786Z,35.63
2019-04-05T12:37:24.134Z,36.33
2019-04-05T12:39:49.509Z,32.90
2019-04-05T12:42:15.934Z,36.00
2019-04-05T12:44:44.619Z,37.17
2019-04-05T12:47:08.281Z,37.43
2019-04-05T12:49:33.633Z,36.63
2019-04-05T12:51:59.009Z,35.70
2019-04-05T12:54:24.362Z,36.47
2019-04-05T12:56:49.795Z,36.33
2019-04-05T12:59:15.141Z,37.17
2019-04-05T13:01:40.600Z,35.93
2019-04-05T13:04:05.981Z,36.13
2019-04-05T13:06:31.681Z,35.30
2019-04-05T13:08:57.162Z,36.50
2019-04-05T13:11:25.783Z,35.13
2019-04-05T13:13:49.483Z,36.17
2019-04-05T13:16:14.858Z,36.87
2019-04-05T13:18:40.526Z,35.80
2019-04-05T13:21:14.457Z,36.93
2019-04-05T13:23:35.856Z,36.00
2019-04-05T13:26:00.937Z,34.87
2019-04-05T13:28:27.384Z,35.27
2019-04-05T13:30:55.418Z,36.23
2019-04-05T13:33:21.614Z,35.60
2019-04-05T13:35:48.423Z,37.13
2019-04-05T13:38:13.798Z,33.13
2019-04-05T13:40:39.149Z,35.33
2019-04-05T13:43:04.530Z,36.60
2019-04-05T13:45:29.871Z,35.87
2019-04-05T13:47:55.223Z,36.43
2019-04-05T13:50:20.605Z,37.57
2019-04-05T13:52:45.967Z,37.07
2019-04-05T13:55:11.983Z,37.07
2019-04-05T13:57:38.431Z,37.80
2019-04-05T14:00:04.802Z,35.40
2019-04-05T14:02:30.189Z,30.70
2019-04-05T14:04:55.602Z,37.00
2019-04-05T14:07:21.559Z,36.43
2019-04-05T14:09:49.022Z,36.77
2019-04-05T14:12:15.442Z,37.83
2019-04-05T14:14:41.520Z,36.67
2019-04-05T14:17:08.177Z,37.40
2019-04-05T14:19:33.544Z,36.37
2019-04-05T14:22:08.506Z,36.17
2019-04-05T14:24:26.237Z,36.20
2019-04-05T14:26:51.626Z,35.67
2019-04-05T14:29:17.270Z,38.23
2019-04-05T14:31:42.733Z,36.77
2019-04-05T14:34:08.430Z,36.07
2019-04-05T14:36:33.774Z,36.73
2019-04-05T14:38:59.157Z,36.67
2019-04-05T14:41:24.506Z,36.63
2019-04-05T14:43:49.914Z,35.80
2019-04-05T14:46:15.262Z,37.23
2019-04-05T14:48:40.602Z,36.60
2019-04-05T14:51:05.989Z,36.20
2019-04-05T14:53:32.273Z,35.97
2019-04-05T14:55:59.269Z,36.50
2019-04-05T14:58:25.844Z,35.73
2019-04-05T15:00:51.194Z,37.00
2019-04-05T15:03:17.138Z,37.57
2019-04-05T15:05:42.513Z,37.67
2019-04-05T15:08:07.894Z,36.83
2019-04-05T15:10:33.273Z,37.07
2019-04-05T15:13:00.225Z,36.83
2019-04-05T15:15:26.474Z,37.40
2019-04-05T15:17:52.214Z,36.63
2019-04-05T15:20:17.565Z,36.97
2019-04-05T15:22:42.938Z,35.47
2019-04-05T15:25:09.315Z,35.43
2019-04-05T15:27:34.986Z,36.47
2019-04-05T15:30:00.385Z,37.00
2019-04-05T15:32:26.793Z,36.40
2019-04-05T15:34:52.237Z,35.73
2019-04-05T15:37:17.607Z,36.97
2019-04-05T15:39:44.372Z,37.03
2019-04-05T15:42:10.041Z,36.37
2019-04-05T15:44:35.730Z,35.57
2019-04-05T15:47:01.478Z,35.47
2019-04-05T15:49:26.834Z,37.90
2019-04-05T15:51:54.496Z,36.07
2019-04-05T15:54:19.180Z,36.93
2019-04-05T15:56:44.557Z,37.43
2019-04-05T15:59:09.893Z,36.70
2019-04-05T16:01:35.637Z,36.97
2019-04-05T16:04:02.733Z,35.57
2019-04-05T16:06:28.042Z,36.30
2019-04-05T16:08:54.933Z,36.33
2019-04-05T16:11:20.651Z,36.77
2019-04-05T16:13:47.072Z,36.10
2019-04-05T16:16:12.782Z,36.10
2019-04-05T16:18:39.853Z,37.23
2019-04-05T16:21:05.392Z,35.53
2019-04-05T16:23:31.826Z,36.20
2019-04-05T16:25:57.206Z,35.77
2019-04-05T16:28:22.621Z,36.23
2019-04-05T16:30:48.347Z,36.00
2019-04-05T16:33:13.713Z,37.60
2019-04-05T16:35:39.442Z,35.27
2019-04-05T16:38:04.941Z,35.80
2019-04-05T16:40:31.644Z,35.83
2019-04-05T16:43:02.902Z,36.57
2019-04-05T16:45:24.099Z,35.50
2019-04-05T16:47:49.474Z,36.13
2019-04-05T16:50:15.021Z,35.67
2019-04-05T16:52:45.149Z,37.50
2019-04-05T16:55:07.432Z,35.73
2019-04-05T16:57:32.997Z,36.90
2019-04-05T16:59:58.351Z,35.83
2019-04-05T17:02:24.006Z,36.27
2019-04-05T17:04:49.532Z,37.17
2019-04-05T17:07:14.878Z,34.73
2019-04-05T17:09:40.302Z,35.73
2019-04-05T17:12:05.774Z,34.77
2019-04-05T17:14:31.129Z,34.97
2019-04-05T17:16:56.587Z,37.20
2019-04-05T17:19:21.953Z,36.97
2019-04-05T17:21:47.367Z,37.23
2019-04-05T17:24:12.741Z,37.93
2019-04-05T17:26:38.099Z,37.27
2019-04-05T17:29:03.891Z,38.90
2019-04-05T17:31:30.407Z,37.47
2019-04-05T17:33:55.785Z,36.93
2019-04-05T17:36:21.147Z,36.83
2019-04-05T17:38:46.523Z,36.60
2019-04-05T17:41:11.869Z,37.33
2019-04-05T17:43:37.250Z,37.73
2019-04-05T17:46:02.631Z,37.13
2019-04-05T17:48:27.993Z,38.07
2019-04-05T17:50:53.351Z,36.93
2019-04-05T17:53:18.899Z,36.90
2019-04-05T17:55:44.649Z,36.93
2019-04-05T17:58:10.677Z,39.20
2019-04-05T18:00:36.525Z,40.37
2019-04-05T18:03:01.890Z,40.17
2019-04-05T18:05:27.391Z,38.07
2019-04-05T18:07:52.753Z,39.37
2019-04-05T18:10:18.150Z,39.87
2019-04-05T18:12:43.494Z,39.23
2019-04-05T18:15:09.477Z,38.33
2019-04-05T18:17:34.889Z,38.60
2019-04-05T18:20:00.241Z,38.27
2019-04-05T18:22:25.616Z,39.90
2019-04-05T18:24:51.034Z,40.77
2019-04-05T18:27:16.427Z,38.90
2019-04-05T18:29:41.819Z,39.90
2019-04-05T18:32:07.193Z,40.23
2019-04-05T18:34:32.533Z,40.00
2019-04-05T18:36:57.899Z,39.30
2019-04-05T18:39:23.351Z,39.23
2019-04-05T18:41:48.702Z,38.17
2019-04-05T18:44:14.065Z,38.63
2019-04-05T18:46:39.442Z,41.03
2019-04-05T18:49:05.214Z,40.17
2019-04-05T18:51:30.630Z,40.40
2019-04-05T18:53:55.979Z,40.53
2019-04-05T18:56:21.375Z,41.97
2019-04-05T18:58:46.728Z,42.50
2019-04-05T19:01:12.082Z,40.30
2019-04-05T19:03:37.473Z,41.17
2019-04-05T19:06:02.977Z,42.23
2019-04-05T19:08:38.909Z,40.80
2019-04-05T19:10:55.394Z,41.57
2019-04-05T19:13:21.102Z,42.53
2019-04-05T19:15:46.853Z,42.17
2019-04-05T19:18:13.039Z,40.63
2019-04-05T19:20:38.332Z,40.20
2019-04-05T19:23:04.761Z,41.43
2019-04-05T19:25:30.167Z,39.60
2019-04-05T19:27:55.529Z,41.47
2019-04-05T19:49:58.338Z,41.73
2019-04-05T19:52:23.719Z,41.27
2019-04-05T19:54:49.070Z,41.37
2019-04-05T19:57:14.449Z,40.37
2019-04-05T19:59:39.797Z,40.93
2019-04-05T20:02:05.274Z,40.97
2019-04-05T20:04:30.618Z,41.07
2019-04-05T20:06:58.685Z,40.37
2019-04-05T20:09:23.030Z,41.23
2019-04-05T20:11:48.495Z,40.40
2019-04-05T20:14:14.906Z,39.83
2019-04-05T20:16:40.285Z,41.23
2019-04-05T20:19:05.673Z,41.40
2019-04-05T20:21:32.099Z,41.43
2019-04-05T20:23:57.592Z,43.10
2019-04-05T20:26:23.023Z,43.57
2019-04-05T20:28:48.378Z,42.77
2019-04-05T20:31:13.741Z,42.17
2019-04-05T20:33:39.094Z,42.50
2019-04-05T20:36:04.441Z,43.77
2019-04-05T20:38:29.826Z,44.20
2019-04-05T20:40:55.174Z,42.07
2019-04-05T20:43:20.613Z,43.73
2019-04-05T20:45:45.917Z,43.00
2019-04-05T20:48:11.274Z,44.63
2019-04-05T20:50:36.654Z,44.43
2019-04-05T20:53:02.003Z,43.13
2019-04-05T20:55:27.378Z,44.60
2019-04-05T20:58:11.781Z,43.37
2019-04-05T21:00:37.166Z,43.10
2019-04-05T21:03:02.745Z,45.03
2019-04-05T21:05:28.122Z,42.63
2019-04-05T21:07:53.518Z,43.37
2019-04-05T21:10:18.920Z,44.60
2019-04-05T21:12:44.270Z,44.30
2019-04-05T21:15:09.734Z,44.50
2019-04-05T21:17:35.119Z,43.37
2019-04-05T21:20:01.046Z,44.53
2019-04-05T21:22:26.423Z,44.20
2019-04-05T21:24:51.781Z,44.03
2019-04-05T21:27:17.515Z,43.20
2019-04-05T21:29:43.111Z,44.57
2019-04-05T21:32:08.451Z,43.97
2019-04-05T21:34:34.915Z,43.80
2019-04-05T21:37:00.302Z,44.27
2019-04-05T21:39:25.658Z,44.63
2019-04-05T21:41:51.004Z,43.33
2019-04-05T21:44:16.362Z,44.67
2019-04-05T21:46:41.737Z,44.87
2019-04-05T21:49:07.491Z,44.70
2019-04-05T21:51:32.865Z,44.10
2019-04-05T21:53:58.226Z,44.27
2019-04-05T21:56:24.225Z,44.40
2019-04-05T21:58:49.582Z,44.57
2019-04-05T22:01:15.054Z,45.23
2019-04-05T22:03:40.770Z,44.93
2019-04-05T22:06:06.374Z,45.80
2019-04-05T22:08:31.806Z,45.50
2019-04-05T22:10:57.170Z,44.97
2019-04-05T22:13:22.527Z,44.43
2019-04-05T22:15:47.918Z,44.50
2019-04-05T22:18:13.271Z,45.70
2019-04-05T22:20:38.637Z,45.50
2019-04-05T22:23:03.993Z,45.00
2019-04-05T22:25:29.371Z,44.80
2019-04-05T22:27:54.721Z,45.60
2019-04-05T22:30:20.117Z,40.47
2019-04-05T22:32:45.457Z,45.17
2019-04-05T22:35:10.804Z,43.57
2019-04-05T22:37:36.202Z,44.10
2019-04-05T22:40:20.596Z,42.30
2019-04-05T22:42:45.967Z,44.53
2019-04-05T22:45:11.722Z,42.53
2019-04-05T22:47:37.108Z,43.43
2019-04-05T22:50:02.470Z,40.97
2019-04-05T22:52:27.905Z,39.33
2019-04-05T22:54:53.261Z,42.90
2019-04-05T22:57:18.986Z,44.47
2019-04-05T22:59:44.410Z,42.73
2019-04-05T23:02:09.886Z,42.20
2019-04-05T23:04:35.241Z,41.63
2019-04-05T23:07:00.589Z,40.60
2019-04-05T23:09:26.020Z,44.03
2019-04-05T23:11:51.350Z,40.90
2019-04-05T23:14:16.729Z,43.80
2019-04-05T23:16:42.087Z,39.67
2019-04-05T23:19:07.465Z,42.63
2019-04-05T23:21:32.825Z,42.33
2019-04-05T23:23:58.170Z,40.83
2019-04-05T23:26:23.597Z,42.17
2019-04-05T23:28:48.945Z,42.77
2019-04-05T23:31:14.338Z,45.10
2019-04-05T23:33:39.688Z,44.73
2019-04-05T23:36:05.193Z,44.50
2019-04-05T23:38:30.549Z,42.57
2019-04-05T23:40:55.933Z,42.33
2019-04-05T23:43:21.403Z,42.27
2019-04-05T23:45:46.770Z,41.93
2019-04-05T23:48:12.146Z,39.60
2019-04-05T23:50:37.507Z,40.87
2019-04-05T23:53:02.878Z,42.03
2019-04-05T23:55:33.087Z,40.53
2019-04-05T23:57:55.240Z,41.40
